Time,TemperatureF,DewpointF,PressureIn,WindDirection,WindDirectionDegrees,WindSpeedMPH,WindSpeedGustMPH,Humidity,HourlyPrecipIn,Conditions,Clouds,dailyrainin,SolarRadiationWatts/m^2,SoftwareType,DateUTC
2013-05-09 00:00:00,63.4,59.8,29.99,WSW,247,1.0,10.0,88,0.00,,,0.00,0,Wunderground v.1.15,2013-05-09 04:00:00,
2013-05-09 00:30:00,63.2,59.6,29.98,SSW,212,1.0,1.0,88,0.00,,,0.00,0,Wunderground v.1.15,2013-05-09 04:30:00,
2013-05-09 01:00:00,63.2,59.6,29.98,SW,221,1.0,1.0,88,0.00,,,0.00,0,Wunderground v.1.15,2013-05-09 05:00:00,
2013-05-09 01:30:00,62.3,59.0,29.97,SSW,200,0.0,10.0,89,0.00,,,0.00,0,Wunderground v.1.15,2013-05-09 05:30:00,
2013-05-09 02:00:00,61.6,58.6,29.96,SW,229,0.0,10.0,90,0.00,,,0.00,0,Wunderground v.1.15,2013-05-09 06:00:00,
2013-05-09 02:30:00,61.2,58.2,29.96,SW,236,1.0,1.0,90,0.00,,,0.00,0,Wunderground v.1.15,2013-05-09 06:30:00,
2013-05-09 03:00:00,60.9,58.3,29.96,West,267,0.0,10.0,91,0.00,,,0.00,0,Wunderground v.1.15,2013-05-09 07:00:00,
2013-05-09 03:30:00,59.9,57.6,29.97,West,267,0.0,10.0,92,0.00,,,0.00,0,Wunderground v.1.15,2013-05-09 07:30:00,
2013-05-09 04:00:00,58.1,55.8,29.96,West,267,0.0,10.0,92,0.00,,,0.00,0,Wunderground v.1.15,2013-05-09 08:00:00,
2013-05-09 04:30:00,56.6,54.6,29.97,West,267,0.0,10.0,93,0.00,,,0.00,0,Wunderground v.1.15,2013-05-09 08:30:00,
2013-05-09 05:00:00,55.6,53.9,29.96,West,267,0.0,10.0,94,0.00,,,0.00,0,Wunderground v.1.15,2013-05-09 09:00:00,
2013-05-09 05:30:00,55.0,53.3,29.97,West,267,0.0,10.0,94,0.00,,,0.00,0,Wunderground v.1.15,2013-05-09 09:30:00,
2013-05-09 06:00:00,54.1,52.4,29.98,West,267,0.0,10.0,94,0.00,,,0.00,0,Wunderground v.1.15,2013-05-09 10:00:00,
2013-05-09 06:30:00,53.7,52.3,29.98,West,267,0.0,10.0,95,0.00,,,0.00,12,Wunderground v.1.15,2013-05-09 10:30:00,
2013-05-09 07:00:00,54.3,52.9,30.00,West,267,0.0,10.0,95,0.00,,,0.00,28,Wunderground v.1.15,2013-05-09 11:00:00,
2013-05-09 07:30:00,56.6,55.5,30.00,West,267,0.0,10.0,96,0.00,,,0.00,74,Wunderground v.1.15,2013-05-09 11:30:00,
2013-05-09 08:00:00,60.4,59.3,30.01,West,267,0.0,10.0,96,0.00,,,0.00,54,Wunderground v.1.15,2013-05-09 12:00:00,
2013-05-09 08:30:00,65.3,62.6,30.02,West,259,1.0,10.0,91,0.00,,,0.00,392,Wunderground v.1.15,2013-05-09 12:30:00,
2013-05-09 09:00:00,69.3,63.6,30.02,WNW,294,0.0,10.0,82,0.00,,,0.00,496,Wunderground v.1.15,2013-05-09 13:00:00,
2013-05-09 09:30:00,71.5,63.5,30.03,NNW,339,1.0,10.0,76,0.00,,,0.00,594,Wunderground v.1.15,2013-05-09 13:30:00,
2013-05-09 10:00:00,73.6,64.4,30.03,NNW,333,1.0,1.0,73,0.00,,,0.00,684,Wunderground v.1.15,2013-05-09 14:00:00,
2013-05-09 10:30:00,76.0,64.7,30.03,WNW,288,2.0,2.0,68,0.00,,,0.00,763,Wunderground v.1.15,2013-05-09 14:30:00,
2013-05-09 11:00:00,76.6,63.5,30.03,WNW,298,1.0,10.0,64,0.00,,,0.00,846,Wunderground v.1.15,2013-05-09 15:00:00,
2013-05-09 11:30:00,78.8,64.7,30.03,North,355,1.0,10.0,62,0.00,,,0.00,954,Wunderground v.1.15,2013-05-09 15:30:00,
2013-05-09 12:00:00,79.8,64.2,30.03,WNW,284,3.0,10.0,59,0.00,,,0.00,1051,Wunderground v.1.15,2013-05-09 16:00:00,
2013-05-09 12:30:00,79.0,62.5,30.03,NW,304,1.0,10.0,57,0.00,,,0.00,190,Wunderground v.1.15,2013-05-09 16:30:00,
2013-05-09 13:00:00,80.1,62.5,30.02,WNW,286,3.0,10.0,55,0.00,,,0.00,1053,Wunderground v.1.15,2013-05-09 17:00:00,
2013-05-09 13:30:00,82.2,64.4,30.02,North,5,3.0,3.0,55,0.00,,,0.00,1137,Wunderground v.1.15,2013-05-09 17:30:00,
2013-05-09 14:00:00,82.7,63.3,30.01,North,355,2.0,2.0,52,0.00,,,0.00,893,Wunderground v.1.15,2013-05-09 18:00:00,
2013-05-09 14:30:00,81.0,59.5,30.01,West,277,3.0,3.0,48,0.00,,,0.00,1078,Wunderground v.1.15,2013-05-09 18:30:00,
2013-05-09 15:00:00,80.5,62.3,30.00,West,259,2.0,2.0,54,0.00,,,0.00,946,Wunderground v.1.15,2013-05-09 19:00:00,
2013-05-09 15:30:00,82.8,62.3,30.00,WNW,292,2.0,2.0,50,0.00,,,0.00,900,Wunderground v.1.15,2013-05-09 19:30:00,
2013-05-09 16:00:00,83.8,62.0,30.00,WSW,250,2.0,2.0,48,0.00,,,0.00,239,Wunderground v.1.15,2013-05-09 20:00:00,
2013-05-09 16:30:00,83.3,61.0,29.99,WNW,298,1.0,1.0,47,0.00,,,0.00,710,Wunderground v.1.15,2013-05-09 20:30:00,
2013-05-09 17:00:00,83.1,59.6,29.99,West,263,3.0,3.0,45,0.00,,,0.00,188,Wunderground v.1.15,2013-05-09 21:00:00,
2013-05-09 17:30:00,82.3,59.4,29.99,NW,321,1.0,10.0,46,0.00,,,0.00,490,Wunderground v.1.15,2013-05-09 21:30:00,
2013-05-09 18:00:00,77.7,60.2,30.00,WNW,293,0.0,10.0,55,0.00,,,0.00,230,Wunderground v.1.15,2013-05-09 22:00:00,
2013-05-09 18:30:00,78.0,61.5,30.00,NW,325,1.0,1.0,57,0.00,,,0.00,63,Wunderground v.1.15,2013-05-09 22:30:00,
2013-05-09 19:00:00,76.6,61.7,30.00,West,264,1.0,1.0,60,0.00,,,0.00,39,Wunderground v.1.15,2013-05-09 23:00:00,
2013-05-09 19:30:00,73.1,63.1,30.00,West,264,0.0,10.0,71,0.00,,,0.00,23,Wunderground v.1.15,2013-05-09 23:30:00,
2013-05-09 20:00:00,68.9,63.2,30.01,West,264,0.0,10.0,82,0.00,,,0.00,0,Wunderground v.1.15,2013-05-10 00:00:00,
2013-05-09 20:30:00,65.8,62.1,30.02,West,264,0.0,10.0,88,0.00,,,0.00,0,Wunderground v.1.15,2013-05-10 00:30:00,
2013-05-09 21:00:00,64.0,61.0,30.03,West,264,0.0,10.0,90,0.00,,,0.00,0,Wunderground v.1.15,2013-05-10 01:00:00,
2013-05-09 21:30:00,63.5,60.8,30.05,West,264,0.0,10.0,91,0.00,,,0.00,0,Wunderground v.1.15,2013-05-10 01:30:00,
2013-05-09 22:00:00,62.3,59.9,30.05,West,264,0.0,10.0,92,0.00,,,0.00,0,Wunderground v.1.15,2013-05-10 02:00:00,
2013-05-09 22:30:00,61.5,59.5,30.06,West,264,0.0,10.0,93,0.00,,,0.00,0,Wunderground v.1.15,2013-05-10 02:30:00,
2013-05-09 23:00:00,60.5,58.5,30.06,West,264,0.0,10.0,93,0.00,,,0.00,0,Wunderground v.1.15,2013-05-10 03:00:00,
2013-05-09 23:30:00,60.9,59.2,30.06,West,264,0.0,10.0,94,0.00,,,0.00,0,Wunderground v.1.15,2013-05-10 03:30:00,